createdAt,value
2023-06-03T00:00:28.193Z,69.76
2023-06-03T00:01:00.860Z,69.66
2023-06-03T00:01:33.539Z,69.76
2023-06-03T00:02:06.227Z,69.76
2023-06-03T00:02:38.936Z,69.87
2023-06-03T00:03:11.755Z,69.76
2023-06-03T00:03:44.685Z,69.87
2023-06-03T00:04:17.572Z,69.87
2023-06-03T00:04:50.345Z,69.87
2023-06-03T00:05:23.090Z,69.97
2023-06-03T00:05:55.723Z,69.97
2023-06-03T00:06:28.415Z,69.97
2023-06-03T00:07:01.088Z,69.87
2023-06-03T00:07:33.752Z,70.07
2023-06-03T00:08:06.420Z,70.18
2023-06-03T00:08:39.090Z,70.28
2023-06-03T00:09:11.754Z,70.28
2023-06-03T00:09:44.415Z,70.28
2023-06-03T00:10:17.124Z,70.38
2023-06-03T00:10:49.788Z,70.42
2023-06-03T00:11:22.446Z,70.38
2023-06-03T00:11:55.115Z,70.48
2023-06-03T00:12:27.792Z,70.18
2023-06-03T00:13:00.455Z,70.18
2023-06-03T00:13:33.119Z,70.28
2023-06-03T00:14:05.793Z,70.48
2023-06-03T00:14:38.558Z,70.38
2023-06-03T00:15:11.212Z,70.18
2023-06-03T00:15:43.876Z,70.28
2023-06-03T00:16:16.556Z,70.18
2023-06-03T00:16:49.278Z,70.18
2023-06-03T00:17:21.976Z,70.28
2023-06-03T00:17:54.744Z,70.38
2023-06-03T00:18:27.458Z,70.38
2023-06-03T00:19:00.144Z,70.52
2023-06-03T00:19:32.810Z,70.62
2023-06-03T00:20:05.466Z,70.72
2023-06-03T00:20:38.143Z,70.93
2023-06-03T00:21:10.843Z,70.83
2023-06-03T00:21:43.505Z,71.03
2023-06-03T00:22:16.181Z,71.14
2023-06-03T00:22:48.860Z,71.03
2023-06-03T00:23:21.532Z,71.14
2023-06-03T00:23:54.370Z,71.03
2023-06-03T00:24:27.070Z,70.93
2023-06-03T00:24:59.747Z,70.83
2023-06-03T00:25:32.416Z,70.83
2023-06-03T00:26:05.095Z,70.72
2023-06-03T00:26:37.782Z,70.83
2023-06-03T00:27:10.453Z,70.83
2023-06-03T00:27:43.123Z,70.72
2023-06-03T00:28:15.787Z,70.72
2023-06-03T00:28:48.452Z,70.52
2023-06-03T00:29:21.133Z,70.52
2023-06-03T00:29:53.808Z,70.52
2023-06-03T00:30:26.467Z,70.62
2023-06-03T00:30:59.135Z,70.93
2023-06-03T00:31:31.860Z,70.83
2023-06-03T00:32:04.594Z,70.62
2023-06-03T00:32:37.316Z,70.62
2023-06-03T00:33:10.078Z,70.52
2023-06-03T00:33:42.887Z,70.52
2023-06-03T00:34:15.653Z,70.31
2023-06-03T00:34:48.322Z,70.21
2023-06-03T00:35:21.006Z,70.21
2023-06-03T00:35:53.669Z,70.21
2023-06-03T00:36:26.353Z,70.31
2023-06-03T00:36:59.025Z,70.42
2023-06-03T00:37:31.687Z,70.62
2023-06-03T00:38:04.379Z,70.52
2023-06-03T00:38:35.455Z,70.52
2023-06-03T00:39:08.135Z,70.10
2023-06-03T00:39:40.841Z,70.21
2023-06-03T00:40:13.519Z,70.21
2023-06-03T00:40:46.197Z,70.42
2023-06-03T00:41:18.875Z,70.42
2023-06-03T00:41:51.606Z,70.42
2023-06-03T00:42:24.259Z,70.10
2023-06-03T00:42:56.911Z,70.10
2023-06-03T00:43:29.587Z,70.21
2023-06-03T00:44:02.265Z,70.31
2023-06-03T00:44:34.927Z,70.00
2023-06-03T00:45:07.601Z,69.90
2023-06-03T00:45:40.306Z,70.00
2023-06-03T00:46:13.001Z,70.10
2023-06-03T00:46:45.692Z,70.10
2023-06-03T00:47:18.352Z,70.00
2023-06-03T00:47:51.053Z,70.10
2023-06-03T00:48:23.718Z,70.10
2023-06-03T00:48:56.410Z,70.00
2023-06-03T00:49:29.053Z,69.90
2023-06-03T00:50:01.718Z,69.79
2023-06-03T00:50:34.390Z,69.79
2023-06-03T00:51:07.204Z,70.10
2023-06-03T00:51:39.935Z,70.10
2023-06-03T00:52:12.599Z,69.90
2023-06-03T00:52:45.274Z,69.90
2023-06-03T00:53:17.966Z,70.10
2023-06-03T00:53:50.643Z,70.21
2023-06-03T00:54:23.299Z,70.21
2023-06-03T00:54:55.959Z,70.31
2023-06-03T00:55:28.627Z,70.42
2023-06-03T00:56:01.316Z,70.21
2023-06-03T00:56:33.986Z,70.10
2023-06-03T00:57:06.662Z,70.10
2023-06-03T00:57:39.314Z,69.90
2023-06-03T00:58:12.002Z,69.90
2023-06-03T00:58:44.644Z,70.10
2023-06-03T00:59:17.312Z,70.24
2023-06-03T00:59:49.977Z,70.04
2023-06-03T01:00:22.646Z,69.93
2023-06-03T01:00:55.369Z,70.04
2023-06-03T01:01:28.036Z,70.24
2023-06-03T01:02:00.722Z,70.45
2023-06-03T01:02:33.395Z,70.65
2023-06-03T01:03:06.147Z,70.55
2023-06-03T01:03:38.873Z,70.45
2023-06-03T01:04:11.527Z,70.45
2023-06-03T01:04:44.193Z,70.86
2023-06-03T01:05:16.864Z,70.76
2023-06-03T01:05:49.547Z,71.10
2023-06-03T01:06:22.206Z,71.00
2023-06-03T01:06:54.891Z,71.30
2023-06-03T01:07:27.560Z,71.41
2023-06-03T01:08:00.223Z,71.20
2023-06-03T01:08:32.917Z,71.30
2023-06-03T01:09:05.572Z,71.30
2023-06-03T01:09:38.267Z,71.30
2023-06-03T01:10:10.964Z,71.30
2023-06-03T01:10:43.602Z,71.61
2023-06-03T01:11:16.270Z,71.51
2023-06-03T01:11:48.960Z,71.61
2023-06-03T01:12:21.638Z,71.82
2023-06-03T01:12:54.318Z,71.92
2023-06-03T01:13:26.989Z,71.82
2023-06-03T01:13:59.655Z,71.72
2023-06-03T01:14:32.320Z,71.51
2023-06-03T01:15:04.975Z,71.82
2023-06-03T01:15:37.680Z,71.72
2023-06-03T01:16:10.407Z,72.03
2023-06-03T01:16:43.095Z,71.95
2023-06-03T01:17:15.782Z,71.85
2023-06-03T01:17:48.488Z,72.06
2023-06-03T01:18:21.184Z,72.23
2023-06-03T01:18:53.885Z,72.23
2023-06-03T01:19:26.540Z,72.16
2023-06-03T01:19:59.213Z,72.03
2023-06-03T01:20:31.881Z,71.92
2023-06-03T01:21:04.923Z,72.13
2023-06-03T01:21:31.319Z,72.23
2023-06-03T01:22:04.009Z,72.23
2023-06-03T01:22:36.675Z,72.33
2023-06-03T01:23:09.357Z,72.23
2023-06-03T01:23:42.054Z,72.03
2023-06-03T01:24:14.702Z,71.92
2023-06-03T01:24:47.385Z,71.82
2023-06-03T01:25:18.457Z,71.72
2023-06-03T01:25:51.113Z,71.72
2023-06-03T01:26:23.775Z,71.82
2023-06-03T01:26:56.456Z,71.82
2023-06-03T01:27:29.121Z,72.03
2023-06-03T01:28:01.796Z,72.03
2023-06-03T01:28:34.467Z,72.03
2023-06-03T01:29:07.136Z,72.03
2023-06-03T01:29:39.799Z,72.06
2023-06-03T01:30:12.476Z,71.85
2023-06-03T01:30:45.152Z,71.85
2023-06-03T01:31:17.871Z,71.85
2023-06-03T01:31:50.577Z,71.95
2023-06-03T01:32:23.259Z,72.06
2023-06-03T01:32:55.935Z,72.27
2023-06-03T01:33:28.591Z,72.37
2023-06-03T01:34:01.265Z,72.37
2023-06-03T01:34:33.928Z,72.47
2023-06-03T01:35:06.608Z,72.37
2023-06-03T01:35:39.296Z,72.27
2023-06-03T01:36:11.974Z,72.27
2023-06-03T01:36:44.860Z,72.37
2023-06-03T01:37:17.542Z,72.58
2023-06-03T01:37:51.653Z,72.67
2023-06-03T01:38:17.913Z,72.67
2023-06-03T01:38:50.575Z,72.67
2023-06-03T01:39:23.235Z,72.78
2023-06-03T01:39:55.926Z,72.67
2023-06-03T01:40:28.578Z,72.58
2023-06-03T01:41:01.255Z,72.58
2023-06-03T01:41:33.919Z,72.67
2023-06-03T01:42:06.590Z,72.58
2023-06-03T01:42:39.262Z,72.58
2023-06-03T01:43:11.927Z,72.67
2023-06-03T01:43:44.592Z,72.61
2023-06-03T01:44:17.271Z,72.19
2023-06-03T01:44:49.945Z,72.09
2023-06-03T01:45:22.604Z,72.40
2023-06-03T01:45:55.279Z,72.50
2023-06-03T01:46:28.036Z,72.61
2023-06-03T01:47:00.899Z,72.61
2023-06-03T01:47:33.609Z,72.61
2023-06-03T01:48:06.313Z,72.71
2023-06-03T01:48:38.975Z,72.81
2023-06-03T01:49:11.647Z,72.92
2023-06-03T01:49:44.302Z,73.02
2023-06-03T01:50:16.970Z,73.02
2023-06-03T01:50:49.637Z,73.02
2023-06-03T01:51:22.332Z,73.22
2023-06-03T01:51:55.013Z,73.33
2023-06-03T01:52:27.743Z,73.33
2023-06-03T01:53:00.388Z,73.43
2023-06-03T01:53:33.038Z,73.43
2023-06-03T01:54:05.728Z,73.43
2023-06-03T01:54:38.398Z,73.47
2023-06-03T01:55:11.063Z,73.57
2023-06-03T01:55:43.723Z,73.68
2023-06-03T01:56:16.413Z,73.47
2023-06-03T01:56:49.083Z,73.05
2023-06-03T01:57:21.760Z,73.05
2023-06-03T01:57:54.425Z,73.26
2023-06-03T01:58:27.120Z,73.47
2023-06-03T01:58:59.764Z,73.77
2023-06-03T01:59:32.434Z,73.77
2023-06-03T02:00:05.117Z,73.88
2023-06-03T02:00:37.820Z,73.98
2023-06-03T02:01:10.514Z,74.19
2023-06-03T02:01:43.213Z,74.19
2023-06-03T02:02:15.947Z,74.22
2023-06-03T02:02:48.689Z,74.29
2023-06-03T02:03:21.394Z,74.33
2023-06-03T02:03:54.081Z,74.33
2023-06-03T02:04:26.756Z,74.33
2023-06-03T02:04:59.419Z,74.33
2023-06-03T02:05:32.093Z,74.22
2023-06-03T02:06:04.767Z,74.22
2023-06-03T02:06:37.467Z,74.33
2023-06-03T02:07:10.124Z,74.43
2023-06-03T02:07:42.806Z,74.43
2023-06-03T02:08:15.502Z,74.43
2023-06-03T02:08:48.137Z,74.53
2023-06-03T02:09:20.807Z,74.53
2023-06-03T02:09:53.494Z,74.53
2023-06-03T02:10:26.170Z,74.53
2023-06-03T02:10:57.249Z,74.53
2023-06-03T02:11:29.917Z,74.53
2023-06-03T02:12:02.578Z,74.63
2023-06-03T02:12:35.251Z,74.63
2023-06-03T02:13:07.935Z,74.84
2023-06-03T02:13:40.589Z,74.63
2023-06-03T02:14:13.279Z,74.33
2023-06-03T02:14:45.957Z,73.91
2023-06-03T02:15:18.611Z,73.71
2023-06-03T02:15:51.269Z,73.91
2023-06-03T02:16:23.995Z,74.12
2023-06-03T02:16:56.816Z,74.22
2023-06-03T02:17:29.685Z,74.43
2023-06-03T02:18:02.541Z,74.53
2023-06-03T02:18:35.199Z,74.63
2023-06-03T02:19:07.860Z,74.63
2023-06-03T02:19:40.538Z,74.63
2023-06-03T02:20:13.211Z,74.53
2023-06-03T02:20:45.886Z,74.63
2023-06-03T02:21:18.563Z,74.53
2023-06-03T02:21:51.246Z,74.53
2023-06-03T02:22:23.893Z,74.53
2023-06-03T02:22:56.568Z,74.53
2023-06-03T02:23:29.272Z,74.43
2023-06-03T02:24:02.021Z,74.46
2023-06-03T02:24:34.774Z,74.57
2023-06-03T02:25:07.623Z,74.57
2023-06-03T02:25:40.324Z,74.57
2023-06-03T02:26:12.993Z,74.57
2023-06-03T02:26:45.685Z,74.67
2023-06-03T02:27:18.367Z,74.77
2023-06-03T02:27:51.037Z,74.67
2023-06-03T02:28:23.716Z,74.77
2023-06-03T02:28:56.377Z,74.88
2023-06-03T02:29:29.058Z,74.98
2023-06-03T02:30:01.788Z,74.98
2023-06-03T02:30:34.500Z,74.98
2023-06-03T02:31:07.361Z,74.98
2023-06-03T02:31:40.169Z,74.98
2023-06-03T02:32:06.851Z,74.98
2023-06-03T02:32:39.585Z,75.19
2023-06-03T02:33:12.275Z,75.19
2023-06-03T02:33:45.044Z,75.09
2023-06-03T02:34:17.707Z,75.09
2023-06-03T02:34:50.407Z,74.98
2023-06-03T02:35:23.059Z,74.88
2023-06-03T02:35:55.827Z,74.88
2023-06-03T02:36:28.503Z,74.98
2023-06-03T02:37:01.187Z,75.09
2023-06-03T02:37:33.830Z,74.98
2023-06-03T02:38:06.507Z,75.09
2023-06-03T02:38:39.169Z,75.19
2023-06-03T02:39:11.841Z,75.19
2023-06-03T02:39:44.504Z,75.29
2023-06-03T02:40:17.190Z,75.39
2023-06-03T02:40:49.845Z,75.49
2023-06-03T02:41:22.509Z,75.60
2023-06-03T02:41:55.183Z,75.39
2023-06-03T02:42:27.842Z,75.49
2023-06-03T02:43:00.526Z,75.70
2023-06-03T02:43:33.174Z,75.60
2023-06-03T02:44:05.836Z,75.49
2023-06-03T02:44:38.497Z,75.60
2023-06-03T02:45:11.183Z,75.70
2023-06-03T02:45:43.876Z,75.60
2023-06-03T02:46:16.601Z,75.49
2023-06-03T02:46:49.295Z,75.60
2023-06-03T02:47:21.990Z,75.70
2023-06-03T02:47:54.737Z,75.81
2023-06-03T02:48:27.388Z,75.70
2023-06-03T02:49:00.091Z,75.74
2023-06-03T02:49:32.765Z,75.74
2023-06-03T02:50:05.427Z,75.63
2023-06-03T02:50:38.092Z,75.53
2023-06-03T02:51:10.758Z,75.43
2023-06-03T02:51:43.445Z,75.43
2023-06-03T02:52:16.121Z,75.32
2023-06-03T02:52:48.797Z,75.22
2023-06-03T02:53:21.458Z,75.22
2023-06-03T02:53:54.140Z,75.32
2023-06-03T02:54:26.808Z,75.32
2023-06-03T02:54:59.476Z,75.32
2023-06-03T02:55:32.128Z,75.53
2023-06-03T02:56:04.795Z,75.74
2023-06-03T02:56:37.485Z,75.63
2023-06-03T02:57:10.278Z,75.63
2023-06-03T02:57:42.946Z,75.63
2023-06-03T02:58:15.590Z,75.74
2023-06-03T02:58:48.257Z,75.84
2023-06-03T02:59:20.922Z,75.95
2023-06-03T02:59:53.601Z,76.05
2023-06-03T03:00:26.270Z,76.05
2023-06-03T03:00:58.965Z,76.15
2023-06-03T03:01:31.684Z,76.15
2023-06-03T03:02:04.457Z,76.15
2023-06-03T03:02:37.230Z,76.05
2023-06-03T03:03:09.956Z,76.05
2023-06-03T03:03:42.696Z,76.15
2023-06-03T03:04:15.465Z,76.15
2023-06-03T03:04:48.181Z,76.05
2023-06-03T03:05:20.850Z,75.95
2023-06-03T03:05:53.523Z,75.84
2023-06-03T03:06:26.242Z,75.74
2023-06-03T03:06:58.899Z,75.74
2023-06-03T03:07:31.584Z,75.84
2023-06-03T03:08:04.257Z,76.05
2023-06-03T03:08:36.950Z,76.05
2023-06-03T03:09:09.681Z,76.15
2023-06-03T03:09:42.335Z,76.26
2023-06-03T03:10:14.998Z,76.26
2023-06-03T03:10:47.671Z,76.15
2023-06-03T03:11:20.340Z,76.15
2023-06-03T03:11:53.040Z,76.05
2023-06-03T03:12:25.726Z,75.95
2023-06-03T03:12:58.400Z,75.95
2023-06-03T03:13:31.085Z,76.15
2023-06-03T03:14:03.876Z,76.26
2023-06-03T03:14:36.527Z,76.26
2023-06-03T03:15:09.206Z,76.36
2023-06-03T03:15:41.865Z,76.36
2023-06-03T03:16:14.556Z,76.36
2023-06-03T03:16:47.209Z,76.46
2023-06-03T03:17:19.882Z,76.36
2023-06-03T03:17:52.599Z,76.36
2023-06-03T03:18:25.280Z,76.26
2023-06-03T03:18:57.948Z,76.36
2023-06-03T03:19:30.644Z,76.36
2023-06-03T03:20:03.295Z,76.46
2023-06-03T03:20:35.950Z,76.26
2023-06-03T03:21:08.619Z,76.26
2023-06-03T03:21:41.292Z,76.26
2023-06-03T03:22:13.972Z,76.12
2023-06-03T03:22:46.655Z,76.15
2023-06-03T03:23:19.362Z,76.12
2023-06-03T03:23:52.077Z,76.22
2023-06-03T03:24:24.719Z,75.81
2023-06-03T03:24:57.410Z,75.49
2023-06-03T03:25:30.121Z,75.60
2023-06-03T03:26:02.852Z,75.81
2023-06-03T03:26:35.613Z,75.91
2023-06-03T03:27:08.309Z,75.91
2023-06-03T03:27:40.982Z,75.81
2023-06-03T03:28:13.630Z,75.91
2023-06-03T03:28:46.296Z,76.01
2023-06-03T03:29:18.965Z,75.81
2023-06-03T03:29:51.659Z,76.01
2023-06-03T03:30:24.301Z,76.01
2023-06-03T03:30:56.970Z,76.01
2023-06-03T03:31:29.679Z,75.91
2023-06-03T03:32:00.762Z,75.91
2023-06-03T03:32:33.558Z,75.91
2023-06-03T03:33:06.272Z,75.91
2023-06-03T03:33:38.932Z,75.91
2023-06-03T03:34:11.600Z,75.81
2023-06-03T03:34:44.276Z,75.81
2023-06-03T03:35:16.940Z,75.91
2023-06-03T03:35:49.615Z,75.70
2023-06-03T03:36:22.298Z,75.19
2023-06-03T03:36:54.978Z,74.98
2023-06-03T03:37:27.653Z,75.19
2023-06-03T03:38:00.302Z,74.98
2023-06-03T03:38:32.962Z,74.77
2023-06-03T03:39:05.636Z,74.98
2023-06-03T03:39:38.297Z,74.88
2023-06-03T03:40:10.968Z,74.88
2023-06-03T03:40:43.675Z,74.88
2023-06-03T03:41:16.352Z,75.09
2023-06-03T03:41:49.034Z,75.39
2023-06-03T03:42:21.690Z,75.29
2023-06-03T03:42:54.361Z,75.29
2023-06-03T03:43:27.024Z,75.29
2023-06-03T03:43:59.700Z,75.39
2023-06-03T03:44:32.388Z,75.29
2023-06-03T03:45:05.044Z,75.39
2023-06-03T03:45:37.723Z,75.39
2023-06-03T03:46:10.427Z,75.29
2023-06-03T03:46:43.233Z,74.88
2023-06-03T03:47:15.888Z,74.67
2023-06-03T03:47:48.594Z,74.88
2023-06-03T03:48:21.245Z,74.88
2023-06-03T03:48:53.899Z,74.98
2023-06-03T03:49:26.576Z,75.09
2023-06-03T03:49:53.216Z,74.98
2023-06-03T03:50:19.890Z,75.19
2023-06-03T03:50:46.379Z,75.09
2023-06-03T03:51:19.382Z,75.19
2023-06-03T03:51:52.253Z,75.29
2023-06-03T03:52:25.682Z,75.29
2023-06-03T03:52:55.199Z,75.29
2023-06-03T03:53:28.113Z,75.29
2023-06-03T03:53:54.751Z,75.19
2023-06-03T03:54:21.411Z,75.19
2023-06-03T03:54:54.234Z,75.19
2023-06-03T03:55:20.879Z,75.19
2023-06-03T03:55:53.545Z,75.19
2023-06-03T03:56:26.551Z,74.98
2023-06-03T03:56:53.075Z,74.88
2023-06-03T03:57:25.774Z,74.88
2023-06-03T03:57:58.436Z,74.88
2023-06-03T03:58:31.104Z,74.57
2023-06-03T03:59:03.770Z,74.22
2023-06-03T03:59:36.437Z,74.43
2023-06-03T04:00:09.116Z,74.74
2023-06-03T04:00:41.785Z,74.74
2023-06-03T04:01:14.465Z,74.33
2023-06-03T04:01:47.189Z,74.12
2023-06-03T04:02:19.901Z,74.12
2023-06-03T04:02:52.626Z,74.22
2023-06-03T04:03:23.711Z,74.22
2023-06-03T04:03:56.668Z,73.91
2023-06-03T04:04:29.414Z,73.50
2023-06-03T04:05:02.087Z,73.50
2023-06-03T04:05:34.756Z,73.50
2023-06-03T04:06:07.459Z,73.57
2023-06-03T04:06:40.119Z,73.57
2023-06-03T04:07:12.808Z,73.47
2023-06-03T04:07:45.471Z,73.36
2023-06-03T04:08:18.140Z,73.36
2023-06-03T04:08:50.816Z,72.44
2023-06-03T04:09:23.479Z,72.23
2023-06-03T04:09:56.152Z,72.54
2023-06-03T04:10:28.920Z,72.64
2023-06-03T04:11:01.601Z,72.23
2023-06-03T04:11:34.275Z,71.58
2023-06-03T04:12:06.942Z,71.47
2023-06-03T04:12:39.625Z,71.37
2023-06-03T04:13:12.279Z,71.26
2023-06-03T04:13:44.957Z,71.37
2023-06-03T04:14:17.641Z,71.26
2023-06-03T04:14:50.313Z,71.16
2023-06-03T04:15:22.993Z,71.06
2023-06-03T04:15:55.728Z,71.26
2023-06-03T04:16:28.580Z,71.34
2023-06-03T04:17:01.336Z,71.34
2023-06-03T04:17:34.077Z,71.23
2023-06-03T04:18:06.787Z,71.13
2023-06-03T04:18:39.473Z,71.13
2023-06-03T04:19:12.135Z,71.23
2023-06-03T04:19:44.820Z,71.13
2023-06-03T04:20:17.489Z,71.13
2023-06-03T04:20:50.184Z,71.13
2023-06-03T04:21:22.853Z,70.62
2023-06-03T04:21:55.552Z,70.20
2023-06-03T04:22:28.230Z,70.20
2023-06-03T04:23:00.916Z,70.20
2023-06-03T04:23:33.644Z,70.37
2023-06-03T04:24:06.710Z,70.37
2023-06-03T04:24:33.013Z,70.17
2023-06-03T04:25:05.709Z,69.76
2023-06-03T04:25:38.367Z,69.86
2023-06-03T04:26:11.048Z,69.86
2023-06-03T04:26:43.722Z,69.86
2023-06-03T04:27:16.385Z,69.96
2023-06-03T04:27:49.059Z,69.55
2023-06-03T04:28:21.724Z,69.65
2023-06-03T04:28:54.400Z,69.45
2023-06-03T04:29:27.072Z,69.52
2023-06-03T04:29:59.760Z,70.04
2023-06-03T04:30:32.431Z,69.73
2023-06-03T04:31:05.280Z,69.52
2023-06-03T04:31:38.140Z,69.42
2023-06-03T04:32:10.915Z,69.62
2023-06-03T04:32:43.713Z,69.31
2023-06-03T04:33:16.425Z,69.21
2023-06-03T04:33:49.079Z,69.01
2023-06-03T04:34:21.747Z,69.11
2023-06-03T04:34:54.421Z,68.49
2023-06-03T04:35:27.086Z,68.35
2023-06-03T04:35:59.743Z,68.56
2023-06-03T04:36:32.424Z,68.66
2023-06-03T04:37:05.092Z,68.77
2023-06-03T04:37:37.770Z,68.77
2023-06-03T04:38:10.440Z,69.28
2023-06-03T04:38:43.113Z,69.07
2023-06-03T04:39:15.774Z,68.25
2023-06-03T04:39:48.444Z,67.63
2023-06-03T04:40:21.132Z,67.63
2023-06-03T04:40:53.786Z,68.05
2023-06-03T04:41:26.470Z,67.81
2023-06-03T04:41:59.133Z,67.91
2023-06-03T04:42:31.940Z,67.71
2023-06-03T04:43:04.771Z,67.50
2023-06-03T04:43:37.514Z,67.19
2023-06-03T04:44:10.197Z,67.09
2023-06-03T04:44:42.854Z,66.67
2023-06-03T04:45:15.528Z,66.88
2023-06-03T04:45:48.195Z,66.85
2023-06-03T04:46:20.874Z,66.44
2023-06-03T04:46:53.732Z,66.54
2023-06-03T04:47:26.389Z,66.13
2023-06-03T04:47:59.060Z,66.03
2023-06-03T04:48:31.713Z,66.34
2023-06-03T04:49:04.418Z,66.03
2023-06-03T04:49:37.116Z,65.62
2023-06-03T04:50:09.798Z,66.13
2023-06-03T04:50:42.464Z,66.54
2023-06-03T04:51:15.145Z,66.44
2023-06-03T04:51:47.828Z,65.92
2023-06-03T04:52:20.472Z,66.54
2023-06-03T04:52:53.176Z,66.54
2023-06-03T04:53:25.852Z,65.89
2023-06-03T04:53:58.518Z,65.48
2023-06-03T04:54:31.179Z,65.89
2023-06-03T04:55:03.860Z,66.31
2023-06-03T04:55:36.527Z,65.89
2023-06-03T04:56:09.196Z,65.08
2023-06-03T04:56:41.854Z,65.48
2023-06-03T04:57:14.520Z,65.48
2023-06-03T04:57:47.248Z,64.87
2023-06-03T04:58:20.029Z,64.76
2023-06-03T04:58:52.693Z,64.76
2023-06-03T04:59:25.394Z,64.76
2023-06-03T04:59:58.048Z,64.25
2023-06-03T05:00:30.712Z,64.76
2023-06-03T05:01:03.550Z,65.05
2023-06-03T05:01:36.360Z,64.94
2023-06-03T05:02:09.114Z,65.05
2023-06-03T05:02:42.025Z,64.73
2023-06-03T05:03:17.030Z,64.94
2023-06-03T05:03:44.029Z,65.05
2023-06-03T05:04:16.729Z,65.14
2023-06-03T05:04:49.392Z,65.66
2023-06-03T05:05:22.085Z,65.45
2023-06-03T05:05:54.751Z,64.63
2023-06-03T05:06:27.422Z,64.43
2023-06-03T05:07:00.211Z,64.73
2023-06-03T05:07:32.973Z,65.12
2023-06-03T05:08:05.694Z,64.60
2023-06-03T05:08:38.376Z,64.40
2023-06-03T05:09:11.392Z,64.19
2023-06-03T05:09:37.566Z,64.19
2023-06-03T05:10:10.232Z,64.50
2023-06-03T05:10:42.905Z,64.09
2023-06-03T05:11:15.570Z,63.78
2023-06-03T05:11:48.240Z,63.68
2023-06-03T05:12:20.921Z,63.17
2023-06-03T05:12:53.607Z,63.78
2023-06-03T05:13:26.268Z,64.19
2023-06-03T05:13:58.947Z,63.89
2023-06-03T05:14:31.608Z,63.78
2023-06-03T05:15:04.286Z,63.98
2023-06-03T05:15:36.968Z,64.19
2023-06-03T05:16:09.657Z,63.96
2023-06-03T05:16:42.401Z,63.24
2023-06-03T05:17:15.071Z,63.65
2023-06-03T05:17:47.815Z,63.44
2023-06-03T05:18:20.503Z,63.54
2023-06-03T05:18:53.200Z,62.83
2023-06-03T05:19:25.863Z,61.90
2023-06-03T05:19:58.527Z,62.73
2023-06-03T05:20:31.179Z,62.73
2023-06-03T05:21:03.990Z,63.24
2023-06-03T05:21:36.835Z,63.65
2023-06-03T05:22:09.506Z,62.83
2023-06-03T05:22:42.178Z,62.41
2023-06-03T05:23:14.909Z,62.83
2023-06-03T05:23:47.673Z,63.24
2023-06-03T05:24:20.338Z,64.16
2023-06-03T05:24:53.001Z,64.16
2023-06-03T05:25:25.676Z,64.06
2023-06-03T05:25:58.468Z,62.83
2023-06-03T05:26:31.113Z,62.83
2023-06-03T05:27:03.786Z,62.41
2023-06-03T05:27:36.489Z,62.39
2023-06-03T05:28:09.165Z,62.18
2023-06-03T05:28:41.846Z,61.77
2023-06-03T05:29:14.527Z,62.18
2023-06-03T05:29:47.192Z,63.31
2023-06-03T05:30:19.887Z,62.59
2023-06-03T05:30:52.585Z,62.29
2023-06-03T05:31:25.247Z,62.49
2023-06-03T05:31:58.032Z,62.08
2023-06-03T05:32:30.741Z,60.64
2023-06-03T05:33:03.449Z,61.87
2023-06-03T05:33:36.156Z,62.39
2023-06-03T05:34:08.831Z,61.77
2023-06-03T05:34:41.506Z,61.67
2023-06-03T05:35:14.172Z,62.49
2023-06-03T05:35:46.849Z,61.77
2023-06-03T05:36:19.537Z,60.64
2023-06-03T05:36:52.200Z,60.85
2023-06-03T05:37:24.854Z,61.23
2023-06-03T05:37:57.544Z,61.74
2023-06-03T05:38:30.222Z,61.95
2023-06-03T05:39:02.884Z,62.15
2023-06-03T05:39:35.556Z,61.23
2023-06-03T05:40:08.245Z,60.61
2023-06-03T05:40:40.889Z,60.92
2023-06-03T05:41:13.565Z,61.44
2023-06-03T05:41:46.230Z,61.74
2023-06-03T05:42:18.910Z,61.85
2023-06-03T05:42:51.609Z,61.85
2023-06-03T05:43:24.258Z,61.85
2023-06-03T05:43:56.973Z,61.74
2023-06-03T05:44:29.655Z,60.92
2023-06-03T05:45:02.317Z,61.33
2023-06-03T05:45:34.988Z,62.15
2023-06-03T05:46:01.502Z,61.85
2023-06-03T05:46:34.352Z,62.15
2023-06-03T05:47:07.144Z,62.15
2023-06-03T05:47:39.842Z,62.15
2023-06-03T05:48:12.525Z,61.74
2023-06-03T05:48:45.196Z,61.20
2023-06-03T05:49:17.866Z,61.00
2023-06-03T05:49:50.566Z,60.49
2023-06-03T05:50:23.233Z,60.79
2023-06-03T05:50:56.134Z,60.17
2023-06-03T05:51:28.835Z,60.38
2023-06-03T05:52:01.485Z,60.49
2023-06-03T05:52:34.152Z,60.69
2023-06-03T05:53:06.862Z,60.89
2023-06-03T05:53:39.570Z,61.00
2023-06-03T05:54:10.618Z,61.71
2023-06-03T05:54:43.272Z,60.46
2023-06-03T05:55:15.955Z,60.66
2023-06-03T05:55:48.611Z,60.46
2023-06-03T05:56:21.292Z,59.74
2023-06-03T05:56:53.955Z,59.64
2023-06-03T05:57:26.619Z,59.02
2023-06-03T05:57:59.300Z,59.64
2023-06-03T05:58:31.987Z,59.33
2023-06-03T05:59:04.666Z,59.33
2023-06-03T05:59:37.328Z,59.30
2023-06-03T06:00:09.987Z,59.30
2023-06-03T06:00:42.656Z,59.41
2023-06-03T06:01:15.326Z,59.50
2023-06-03T06:01:47.993Z,59.61
2023-06-03T06:02:20.720Z,59.30
2023-06-03T06:02:53.560Z,59.09
2023-06-03T06:03:26.399Z,58.79
2023-06-03T06:03:59.752Z,58.69
2023-06-03T06:04:26.032Z,58.69
2023-06-03T06:04:58.678Z,60.02
2023-06-03T06:05:31.352Z,59.92
2023-06-03T06:06:04.011Z,59.48
2023-06-03T06:06:36.689Z,59.17
2023-06-03T06:07:09.337Z,59.17
2023-06-03T06:07:41.995Z,59.17
2023-06-03T06:08:14.704Z,59.68
2023-06-03T06:08:47.358Z,59.27
2023-06-03T06:09:20.024Z,58.97
2023-06-03T06:09:52.694Z,58.04
2023-06-03T06:10:25.356Z,57.92
2023-06-03T06:10:58.038Z,58.02
2023-06-03T06:11:30.723Z,58.02
2023-06-03T06:12:03.425Z,57.40
2023-06-03T06:12:36.083Z,57.40
2023-06-03T06:13:08.761Z,57.20
2023-06-03T06:13:41.454Z,56.99
2023-06-03T06:14:14.121Z,56.38
2023-06-03T06:14:46.785Z,56.79
2023-06-03T06:15:19.489Z,57.40
2023-06-03T06:15:52.256Z,57.58
2023-06-03T06:16:25.023Z,57.58
2023-06-03T06:16:57.726Z,57.38
2023-06-03T06:17:30.437Z,57.38
2023-06-03T06:18:03.145Z,56.76
2023-06-03T06:18:35.841Z,56.76
2023-06-03T06:19:08.523Z,56.76
2023-06-03T06:19:41.194Z,57.07
2023-06-03T06:20:13.850Z,56.46
2023-06-03T06:20:46.516Z,56.87
2023-06-03T06:21:19.184Z,57.15
2023-06-03T06:21:51.879Z,57.25
2023-06-03T06:22:24.551Z,57.15
2023-06-03T06:22:55.675Z,57.45
2023-06-03T06:23:28.416Z,57.45
2023-06-03T06:24:01.169Z,57.43
2023-06-03T06:24:36.355Z,56.81
2023-06-03T06:25:02.872Z,57.02
2023-06-03T06:25:35.555Z,56.51
2023-06-03T06:26:08.216Z,55.18
2023-06-03T06:26:40.864Z,55.58
2023-06-03T06:27:13.536Z,55.05
2023-06-03T06:27:46.306Z,56.27
2023-06-03T06:28:18.996Z,55.76
2023-06-03T06:28:51.673Z,55.36
2023-06-03T06:29:24.344Z,55.97
2023-06-03T06:29:57.026Z,55.56
2023-06-03T06:30:29.700Z,55.87
2023-06-03T06:31:03.290Z,54.85
2023-06-03T06:31:30.638Z,55.36
2023-06-03T06:32:03.358Z,55.76
2023-06-03T06:32:36.064Z,55.56
2023-06-03T06:33:08.740Z,55.63
2023-06-03T06:33:41.521Z,55.43
2023-06-03T06:34:14.173Z,55.23
2023-06-03T06:34:46.839Z,54.72
2023-06-03T06:35:19.511Z,54.82
2023-06-03T06:35:50.597Z,54.72
2023-06-03T06:36:23.265Z,54.61
2023-06-03T06:36:55.947Z,54.61
2023-06-03T06:37:28.617Z,54.51
2023-06-03T06:38:01.299Z,54.41
2023-06-03T06:38:33.962Z,54.28
2023-06-03T06:39:06.636Z,55.20
2023-06-03T06:39:39.316Z,54.18
2023-06-03T06:40:11.964Z,54.79
2023-06-03T06:40:44.622Z,54.39
2023-06-03T06:41:17.313Z,55.30
2023-06-03T06:41:50.009Z,54.90
2023-06-03T06:42:22.657Z,54.77
2023-06-03T06:42:55.327Z,54.05
2023-06-03T06:43:28.006Z,54.16
2023-06-03T06:44:00.655Z,53.85
2023-06-03T06:44:33.335Z,54.05
2023-06-03T06:45:06.035Z,54.05
2023-06-03T06:45:38.858Z,53.52
2023-06-03T06:46:11.638Z,53.52
2023-06-03T06:46:44.314Z,53.52
2023-06-03T06:47:16.983Z,53.31
2023-06-03T06:47:49.703Z,52.91
2023-06-03T06:48:22.358Z,52.50
2023-06-03T06:48:55.055Z,53.29
2023-06-03T06:49:27.722Z,53.19
2023-06-03T06:50:00.459Z,52.88
2023-06-03T06:50:33.128Z,52.78
2023-06-03T06:51:06.017Z,53.50
2023-06-03T06:51:32.303Z,52.15
2023-06-03T06:52:04.978Z,52.35
2023-06-03T06:52:39.015Z,51.03
2023-06-03T06:53:05.890Z,51.94
2023-06-03T06:53:38.622Z,52.04
2023-06-03T06:54:11.261Z,51.43
2023-06-03T06:54:43.919Z,51.33
2023-06-03T06:55:16.595Z,51.33
2023-06-03T06:55:49.260Z,51.41
2023-06-03T06:56:21.919Z,50.70
2023-06-03T06:56:54.588Z,51.00
2023-06-03T06:57:27.248Z,50.90
2023-06-03T06:57:59.918Z,50.70
2023-06-03T06:58:32.607Z,50.39
2023-06-03T06:59:05.285Z,50.39